Metar z połowy godziny Komunikat METAR ze strony awiacja.imgw.pl Metar G30 EPDA METAR EPDA 240400Z 23007KT 210V290 9999 SCT230 09/05 Q1011 RMK 085 080 4/4 =